createdAt,value
2019-01-23T00:01:23.758Z,70.15
2019-01-23T00:03:57.210Z,70.69
2019-01-23T00:06:28.909Z,70.32
2019-01-23T00:09:02.726Z,70.01
2019-01-23T00:11:33.527Z,70.52
2019-01-23T00:14:03.867Z,70.12
2019-01-23T00:16:33.798Z,70.24
2019-01-23T00:19:03.205Z,70.06
2019-01-23T00:21:39.043Z,70.25
2019-01-23T00:24:10.194Z,69.86
2019-01-23T00:26:45.848Z,70.18
2019-01-23T00:29:21.241Z,69.99
2019-01-23T00:31:50.789Z,70.20
2019-01-23T00:34:22.855Z,69.88
2019-01-23T00:36:54.513Z,69.80
2019-01-23T00:39:25.398Z,69.86
2019-01-23T00:41:56.164Z,69.30
2019-01-23T00:44:26.702Z,69.37
2019-01-23T00:47:01.504Z,69.12
2019-01-23T00:49:33.568Z,69.46
2019-01-23T00:52:07.822Z,69.48
2019-01-23T00:54:41.037Z,69.59
2019-01-23T00:57:12.906Z,69.56
2019-01-23T00:59:42.237Z,69.23
2019-01-23T01:02:12.073Z,69.17
2019-01-23T01:04:41.683Z,69.17
2019-01-23T01:07:11.566Z,69.50
2019-01-23T01:09:40.893Z,69.46
2019-01-23T01:12:10.026Z,69.63
2019-01-23T01:14:39.568Z,69.34
2019-01-23T01:17:08.711Z,69.21
2019-01-23T01:19:40.956Z,69.08
2019-01-23T01:22:11.324Z,69.29
2019-01-23T01:24:43.247Z,68.94
2019-01-23T01:27:14.736Z,68.91
2019-01-23T01:29:45.558Z,68.67
2019-01-23T01:32:15.872Z,69.03
2019-01-23T01:34:45.727Z,68.77
2019-01-23T01:37:15.666Z,68.86
2019-01-23T01:39:46.954Z,68.51
2019-01-23T01:42:17.213Z,68.81
2019-01-23T01:44:52.536Z,68.82
2019-01-23T01:47:22.200Z,68.46
2019-01-23T01:49:52.593Z,68.59
2019-01-23T01:52:24.605Z,68.37
2019-01-23T01:54:59.442Z,68.52
2019-01-23T01:57:30.354Z,68.34
2019-01-23T02:00:06.929Z,68.55
2019-01-23T02:02:38.480Z,68.28
2019-01-23T02:05:11.306Z,68.47
2019-01-23T02:07:43.500Z,68.46
2019-01-23T02:10:18.871Z,68.47
2019-01-23T02:12:49.734Z,68.17
2019-01-23T02:15:22.605Z,68.02
2019-01-23T02:17:51.822Z,67.90
2019-01-23T02:20:25.072Z,67.87
2019-01-23T02:22:55.541Z,67.40
2019-01-23T02:25:25.261Z,67.40
2019-01-23T02:27:58.092Z,67.42
2019-01-23T02:30:27.873Z,67.19
2019-01-23T02:32:58.601Z,67.05
2019-01-23T02:35:28.751Z,67.49
2019-01-23T02:37:58.050Z,67.39
2019-01-23T02:40:28.394Z,67.48
2019-01-23T02:42:57.925Z,67.51
2019-01-23T02:45:31.642Z,67.35
2019-01-23T02:48:06.157Z,67.76
2019-01-23T02:50:37.800Z,68.10
2019-01-23T02:53:08.092Z,67.54
2019-01-23T02:55:38.717Z,67.49
2019-01-23T02:58:12.371Z,67.51
2019-01-23T03:00:46.990Z,67.38
2019-01-23T03:03:17.187Z,67.59
2019-01-23T03:05:47.086Z,67.18
2019-01-23T03:08:16.792Z,67.17
2019-01-23T03:10:46.839Z,67.30
2019-01-23T03:13:18.054Z,67.18
2019-01-23T03:15:47.089Z,66.89
2019-01-23T03:18:16.535Z,67.11
2019-01-23T03:20:47.011Z,67.13
2019-01-23T03:23:17.846Z,67.29
2019-01-23T03:25:47.924Z,67.31
2019-01-23T03:28:18.765Z,67.18
2019-01-23T03:30:51.638Z,67.12
2019-01-23T03:33:22.872Z,67.29
2019-01-23T03:35:52.253Z,67.10
2019-01-23T03:38:22.733Z,67.00
2019-01-23T03:40:53.968Z,67.36
2019-01-23T03:43:27.782Z,66.95
2019-01-23T03:45:58.610Z,66.85
2019-01-23T03:48:29.971Z,66.98
2019-01-23T03:51:03.087Z,66.86
2019-01-23T03:53:32.958Z,66.86
2019-01-23T03:56:03.657Z,67.01
2019-01-23T03:58:33.770Z,67.06
2019-01-23T04:01:04.379Z,67.01
2019-01-23T04:03:37.339Z,66.80
2019-01-23T04:06:09.305Z,66.80
2019-01-23T04:08:39.354Z,66.50
2019-01-23T04:11:11.770Z,66.44
2019-01-23T04:13:42.710Z,66.50
2019-01-23T04:16:15.925Z,66.31
2019-01-23T04:18:46.423Z,66.79
2019-01-23T04:21:16.947Z,66.98
2019-01-23T04:23:48.020Z,67.12
2019-01-23T04:26:18.827Z,67.22
2019-01-23T04:28:48.703Z,67.24
2019-01-23T04:31:21.077Z,67.24
2019-01-23T04:33:51.507Z,67.62
2019-01-23T04:36:24.173Z,67.94
2019-01-23T04:38:53.928Z,68.16
2019-01-23T04:41:25.840Z,68.31
2019-01-23T04:43:56.276Z,68.49
2019-01-23T04:46:35.842Z,68.54
2019-01-23T04:49:06.638Z,68.77
2019-01-23T04:51:45.720Z,69.09
2019-01-23T04:54:17.466Z,69.57
2019-01-23T04:56:51.970Z,69.72
2019-01-23T04:59:26.439Z,69.95
2019-01-23T05:01:56.842Z,69.88
2019-01-23T05:04:26.181Z,70.27
2019-01-23T05:06:55.315Z,70.32
2019-01-23T05:09:25.429Z,70.20
2019-01-23T05:11:55.944Z,70.61
2019-01-23T05:14:27.142Z,70.80
2019-01-23T05:16:57.263Z,70.98
2019-01-23T05:19:29.620Z,71.18
2019-01-23T05:22:01.464Z,71.04
2019-01-23T05:24:38.214Z,71.40
2019-01-23T05:27:07.265Z,71.93
2019-01-23T05:29:37.617Z,72.14
2019-01-23T05:32:07.400Z,72.72
2019-01-23T05:34:38.679Z,72.57
2019-01-23T05:37:13.226Z,73.05
2019-01-23T05:39:45.764Z,73.28
2019-01-23T05:42:17.290Z,73.33
2019-01-23T05:44:49.750Z,73.37
2019-01-23T05:47:20.197Z,73.28
2019-01-23T05:49:49.271Z,72.95
2019-01-23T05:52:19.292Z,73.14
2019-01-23T05:54:49.749Z,73.24
2019-01-23T05:57:22.886Z,73.11
2019-01-23T05:59:53.645Z,73.10
2019-01-23T06:02:24.700Z,73.09
2019-01-23T06:04:55.584Z,73.60
2019-01-23T06:07:30.535Z,73.37
2019-01-23T06:10:02.581Z,73.24
2019-01-23T06:12:35.024Z,73.51
2019-01-23T06:15:07.572Z,73.50
2019-01-23T06:17:40.272Z,73.27
2019-01-23T06:20:16.851Z,73.41
2019-01-23T06:22:47.221Z,73.25
2019-01-23T06:25:16.970Z,73.56
2019-01-23T06:27:49.304Z,73.05
2019-01-23T06:30:21.158Z,73.01
2019-01-23T06:32:52.221Z,72.88
2019-01-23T06:35:26.702Z,72.83
2019-01-23T06:38:02.601Z,72.54
2019-01-23T06:40:35.284Z,72.67
2019-01-23T06:43:07.240Z,72.27
2019-01-23T06:45:37.951Z,72.64
2019-01-23T06:48:13.024Z,72.76
2019-01-23T06:50:43.855Z,72.37
2019-01-23T06:53:14.585Z,72.21
2019-01-23T06:55:47.433Z,71.82
2019-01-23T06:58:24.705Z,71.56
2019-01-23T07:03:59.300Z,71.49
2019-01-23T07:21:58.515Z,71.70
2019-01-23T07:24:30.244Z,71.50
2019-01-23T07:27:00.169Z,71.54
2019-01-23T07:29:30.266Z,71.09
2019-01-23T07:32:00.319Z,70.71
2019-01-23T07:34:32.774Z,70.77
2019-01-23T07:37:04.101Z,70.67
2019-01-23T07:39:35.191Z,70.66
2019-01-23T07:42:08.479Z,70.37
2019-01-23T07:44:40.694Z,69.78
2019-01-23T07:47:11.027Z,69.53
2019-01-23T07:49:43.752Z,69.53
2019-01-23T07:52:15.825Z,69.56
2019-01-23T07:54:48.392Z,68.79
2019-01-23T07:57:19.078Z,69.03
2019-01-23T07:59:50.129Z,68.32
2019-01-23T08:02:20.995Z,68.04
2019-01-23T08:04:50.831Z,67.75
2019-01-23T08:07:19.883Z,67.98
2019-01-23T08:09:57.770Z,67.54
2019-01-23T08:12:29.563Z,67.67
2019-01-23T08:15:01.904Z,67.33
2019-01-23T08:17:36.662Z,67.24
2019-01-23T08:20:11.947Z,67.38
2019-01-23T08:22:46.023Z,67.11
2019-01-23T08:25:18.492Z,67.10
2019-01-23T08:27:48.992Z,67.16
2019-01-23T08:30:22.927Z,66.95
2019-01-23T08:33:08.023Z,67.20
2019-01-23T08:35:41.639Z,67.14
2019-01-23T08:38:13.643Z,67.08
2019-01-23T08:40:44.776Z,66.86
2019-01-23T08:43:24.366Z,67.12
2019-01-23T08:45:57.336Z,67.06
2019-01-23T09:02:07.991Z,66.86
2019-01-23T09:04:50.937Z,66.70
2019-01-23T09:07:20.635Z,66.61
2019-01-23T09:10:12.343Z,66.54
2019-01-23T09:12:41.791Z,66.21
2019-01-23T09:18:02.391Z,66.02
2019-01-23T09:20:35.740Z,66.20
2019-01-23T09:23:06.487Z,66.10
2019-01-23T09:25:54.152Z,65.63
2019-01-23T09:28:28.206Z,65.68
2019-01-23T09:31:13.472Z,65.80
2019-01-23T09:33:52.307Z,65.73
2019-01-23T09:38:35.885Z,65.97
2019-01-23T09:41:12.881Z,65.48
2019-01-23T09:44:58.367Z,65.46
2019-01-23T09:47:52.359Z,65.19
2019-01-23T09:50:34.912Z,65.24
2019-01-23T09:53:16.303Z,65.11
2019-01-23T09:55:54.172Z,65.40
2019-01-23T09:58:23.985Z,65.14
2019-01-23T10:00:59.551Z,65.26
2019-01-23T10:03:24.837Z,65.45
2019-01-23T10:05:55.719Z,65.48
2019-01-23T10:08:27.759Z,65.68
2019-01-23T10:10:59.044Z,65.82
2019-01-23T10:13:31.323Z,65.56
2019-01-23T10:16:05.541Z,65.32
2019-01-23T10:18:37.216Z,65.32
2019-01-23T10:21:08.026Z,65.37
2019-01-23T10:23:40.891Z,65.08
2019-01-23T10:26:14.299Z,65.08
2019-01-23T10:28:44.270Z,65.05
2019-01-23T10:31:13.580Z,64.91
2019-01-23T10:33:45.930Z,65.20
2019-01-23T10:36:17.596Z,65.12
2019-01-23T10:38:48.775Z,64.91
2019-01-23T10:41:22.171Z,64.84
2019-01-23T10:43:54.523Z,64.89
2019-01-23T10:46:31.166Z,64.46
2019-01-23T10:49:01.817Z,64.56
2019-01-23T10:54:09.908Z,63.85
2019-01-23T10:56:39.811Z,63.84
2019-01-23T10:59:15.584Z,63.64
2019-01-23T11:01:48.218Z,63.82
2019-01-23T11:04:18.999Z,63.93
2019-01-23T11:06:51.858Z,63.71
2019-01-23T11:09:23.611Z,63.53
2019-01-23T11:11:56.618Z,63.53
2019-01-23T11:14:27.074Z,63.29
2019-01-23T11:17:00.107Z,63.41
2019-01-23T11:19:29.150Z,63.30
2019-01-23T11:21:58.747Z,63.33
2019-01-23T11:24:29.918Z,63.39
2019-01-23T11:27:00.996Z,63.31
2019-01-23T11:29:35.332Z,63.68
2019-01-23T11:32:09.075Z,63.67
2019-01-23T11:34:43.156Z,63.53
2019-01-23T11:37:13.556Z,63.29
2019-01-23T11:39:43.314Z,63.46
2019-01-23T11:42:16.086Z,63.42
2019-01-23T11:44:45.179Z,63.01
2019-01-23T11:47:15.203Z,62.98
2019-01-23T11:49:46.520Z,62.74
2019-01-23T11:52:18.038Z,62.64
2019-01-23T11:54:48.450Z,62.58
2019-01-23T11:57:21.786Z,62.56
2019-01-23T11:59:54.778Z,62.80
2019-01-23T12:02:30.566Z,63.16
2019-01-23T12:04:55.124Z,62.85
2019-01-23T12:07:25.135Z,62.76
2019-01-23T12:09:55.147Z,62.76
2019-01-23T12:12:24.254Z,62.86
2019-01-23T12:14:53.366Z,63.12
2019-01-23T12:17:22.403Z,63.26
2019-01-23T12:19:51.632Z,63.22
2019-01-23T12:22:20.869Z,63.20
2019-01-23T12:24:52.897Z,63.02
2019-01-23T12:27:22.207Z,62.67
2019-01-23T12:29:52.574Z,62.53
2019-01-23T12:32:22.112Z,62.87
2019-01-23T12:34:53.017Z,62.39
2019-01-23T12:37:22.217Z,62.12
2019-01-23T12:39:51.942Z,62.41
2019-01-23T12:42:21.314Z,62.22
2019-01-23T12:44:50.466Z,62.12
2019-01-23T12:47:21.510Z,62.07
2019-01-23T12:49:51.290Z,62.16
2019-01-23T12:52:21.385Z,61.93
2019-01-23T12:54:51.698Z,62.11
2019-01-23T12:57:21.356Z,62.26
2019-01-23T12:59:51.686Z,62.24
2019-01-23T13:02:22.549Z,62.52
2019-01-23T13:04:51.855Z,62.54
2019-01-23T13:07:21.130Z,62.48
2019-01-23T13:09:50.264Z,62.71
2019-01-23T13:12:19.406Z,62.52
2019-01-23T13:14:49.626Z,62.66
2019-01-23T13:17:18.944Z,62.72
2019-01-23T13:19:48.033Z,62.68
2019-01-23T13:22:18.074Z,62.94
2019-01-23T13:24:47.424Z,62.90
2019-01-23T13:27:16.967Z,63.15
2019-01-23T13:29:46.471Z,63.33
2019-01-23T13:32:20.258Z,63.14
2019-01-23T13:34:53.834Z,63.16
2019-01-23T13:37:24.751Z,63.37
2019-01-23T13:39:57.935Z,63.51
2019-01-23T13:42:28.011Z,63.57
2019-01-23T13:44:57.139Z,63.46
2019-01-23T13:47:26.839Z,63.76
2019-01-23T13:49:56.393Z,63.57
2019-01-23T13:52:30.280Z,63.60
2019-01-23T13:55:01.379Z,63.78
2019-01-23T13:57:32.662Z,63.87
2019-01-23T14:00:02.581Z,63.90
2019-01-23T14:02:32.751Z,64.02
2019-01-23T14:05:01.959Z,64.26
2019-01-23T14:07:31.796Z,64.08
2019-01-23T14:10:09.569Z,64.10
2019-01-23T14:12:38.802Z,64.12
2019-01-23T14:15:09.920Z,64.34
2019-01-23T14:17:39.336Z,64.34
2019-01-23T14:20:11.900Z,64.37
2019-01-23T14:22:41.250Z,64.53
2019-01-23T14:25:13.277Z,64.55
2019-01-23T14:27:42.751Z,64.65
2019-01-23T14:30:19.210Z,64.70
2019-01-23T14:32:48.516Z,64.75
2019-01-23T14:35:20.353Z,64.72
2019-01-23T14:37:51.193Z,64.72
2019-01-23T14:40:21.343Z,64.55
2019-01-23T14:42:51.691Z,64.83
2019-01-23T14:45:21.736Z,64.95
2019-01-23T14:47:50.907Z,64.82
2019-01-23T14:50:24.893Z,65.06
2019-01-23T14:52:53.613Z,64.92
2019-01-23T14:55:23.433Z,64.82
2019-01-23T14:57:52.721Z,64.76
2019-01-23T15:00:55.483Z,64.66
2019-01-23T15:03:28.210Z,64.33
2019-01-23T15:05:57.547Z,64.54
2019-01-23T15:08:30.992Z,64.25
2019-01-23T15:11:00.774Z,64.43
2019-01-23T15:13:30.059Z,64.35
2019-01-23T15:16:01.620Z,64.20
2019-01-23T15:18:30.885Z,64.12
2019-01-23T15:21:02.714Z,64.06
2019-01-23T15:23:34.587Z,63.91
2019-01-23T15:26:04.752Z,63.93
2019-01-23T15:28:38.854Z,64.03
2019-01-23T15:31:12.472Z,64.06
2019-01-23T15:33:55.249Z,64.02
2019-01-23T15:36:25.739Z,64.10
2019-01-23T15:38:56.234Z,64.15
2019-01-23T15:41:26.799Z,64.51
2019-01-23T15:44:10.259Z,64.29
2019-01-23T15:46:47.927Z,64.46
2019-01-23T15:49:21.226Z,64.64
2019-01-23T15:51:56.576Z,64.70
2019-01-23T15:54:28.740Z,64.75
2019-01-23T15:57:01.027Z,64.71
2019-01-23T15:59:33.193Z,64.93
2019-01-23T16:02:02.247Z,64.85
2019-01-23T16:04:37.371Z,65.01
2019-01-23T16:07:08.180Z,64.98
2019-01-23T16:09:40.903Z,64.76
2019-01-23T16:12:16.906Z,64.82
2019-01-23T16:14:50.538Z,65.08
2019-01-23T16:17:26.617Z,64.86
2019-01-23T16:19:57.804Z,64.86
2019-01-23T16:22:27.316Z,64.79
2019-01-23T16:24:59.123Z,64.89
2019-01-23T16:27:31.324Z,64.92
2019-01-23T16:30:07.658Z,65.06
2019-01-23T16:32:42.081Z,64.71
2019-01-23T16:35:13.937Z,64.95
2019-01-23T16:37:46.395Z,64.88
2019-01-23T16:40:16.658Z,65.00
2019-01-23T16:42:46.226Z,64.85
2019-01-23T16:45:16.538Z,65.10
2019-01-23T16:47:49.765Z,64.97
2019-01-23T16:50:20.951Z,64.95
2019-01-23T16:52:51.668Z,64.73
2019-01-23T16:55:23.317Z,64.53
2019-01-23T16:57:54.212Z,64.63
2019-01-23T17:00:31.717Z,64.51
2019-01-23T17:03:05.210Z,64.48
2019-01-23T17:05:36.007Z,64.40
2019-01-23T17:08:09.816Z,64.33
2019-01-23T17:10:42.688Z,64.26
2019-01-23T17:13:14.608Z,64.22
2019-01-23T17:15:44.205Z,64.27
2019-01-23T17:18:14.012Z,64.13
2019-01-23T17:20:50.017Z,64.35
2019-01-23T17:23:28.113Z,64.26
2019-01-23T17:29:04.990Z,64.42
2019-01-23T17:31:36.178Z,64.64
2019-01-23T17:34:08.778Z,64.78
2019-01-23T17:36:41.081Z,64.52
2019-01-23T17:39:15.902Z,64.92
2019-01-23T17:41:50.648Z,64.97
2019-01-23T17:44:21.654Z,64.99
2019-01-23T17:46:55.277Z,64.96
2019-01-23T17:52:20.604Z,64.82
2019-01-23T17:54:51.849Z,64.82
2019-01-23T17:57:24.815Z,65.10
2019-01-23T17:59:58.651Z,65.00
2019-01-23T18:02:29.074Z,64.86
2019-01-23T18:05:04.431Z,65.02
2019-01-23T18:07:36.965Z,64.88
2019-01-23T18:10:14.766Z,64.89
2019-01-23T18:12:46.959Z,64.93
2019-01-23T18:15:20.004Z,64.95
2019-01-23T18:17:52.553Z,65.14
2019-01-23T18:20:27.096Z,65.02
2019-01-23T18:22:57.481Z,65.04
2019-01-23T18:25:30.666Z,65.06
2019-01-23T18:28:00.040Z,65.37
2019-01-23T18:31:08.026Z,65.42
2019-01-23T18:36:46.654Z,65.54
2019-01-23T18:41:31.603Z,65.49
2019-01-23T18:45:17.805Z,65.44
2019-01-23T18:49:07.719Z,65.44
2019-01-23T18:51:47.666Z,65.43
2019-01-23T18:54:18.502Z,65.56
2019-01-23T18:56:51.158Z,65.70
2019-01-23T18:59:21.171Z,65.57
2019-01-23T19:01:58.637Z,65.57
2019-01-23T19:04:28.860Z,65.57
2019-01-23T19:07:02.533Z,65.71
2019-01-23T19:09:32.524Z,65.63
2019-01-23T19:12:11.087Z,65.95
2019-01-23T19:14:45.621Z,66.07
2019-01-23T19:17:17.036Z,66.00
2019-01-23T19:19:50.535Z,66.35
2019-01-23T19:22:24.080Z,66.62
2019-01-23T19:24:55.166Z,66.79
2019-01-23T19:27:24.611Z,66.85
2019-01-23T19:29:56.437Z,66.84
2019-01-23T19:32:40.492Z,66.80
2019-01-23T19:35:11.419Z,66.82
2019-01-23T19:37:45.015Z,66.93
2019-01-23T19:40:17.081Z,67.17
2019-01-23T19:42:51.707Z,67.05
2019-01-23T19:45:24.587Z,67.11
2019-01-23T19:48:00.758Z,67.25
2019-01-23T19:50:31.276Z,67.30
2019-01-23T19:53:01.294Z,67.67
2019-01-23T19:55:35.586Z,67.87
2019-01-23T19:58:09.212Z,68.03
2019-01-23T20:00:47.242Z,67.92
2019-01-23T20:03:22.130Z,68.04
2019-01-23T20:05:55.339Z,68.16
2019-01-23T20:08:30.262Z,68.20
2019-01-23T20:11:17.499Z,68.10
2019-01-23T20:13:47.901Z,68.70
2019-01-23T20:16:20.402Z,68.51
2019-01-23T20:18:56.839Z,68.75
2019-01-23T20:21:42.021Z,68.62
2019-01-23T20:24:14.347Z,68.66
2019-01-23T20:26:45.860Z,68.79
2019-01-23T20:29:17.121Z,68.82
2019-01-23T20:31:46.597Z,68.90
2019-01-23T20:34:20.614Z,68.96
2019-01-23T20:36:52.666Z,68.97
2019-01-23T20:39:31.992Z,68.77
2019-01-23T20:42:08.834Z,68.75
2019-01-23T20:44:44.061Z,68.85
2019-01-23T20:47:19.745Z,68.82
2019-01-23T20:49:50.153Z,69.36
2019-01-23T20:52:24.774Z,69.03
2019-01-23T20:55:00.554Z,69.64
2019-01-23T20:57:31.102Z,69.81
2019-01-23T21:00:03.777Z,69.99
2019-01-23T21:02:39.268Z,69.90
2019-01-23T21:05:12.378Z,70.16
2019-01-23T21:07:48.791Z,70.22
2019-01-23T21:10:21.330Z,70.23
2019-01-23T21:12:53.915Z,70.32
2019-01-23T21:15:34.945Z,70.26
2019-01-23T21:18:07.712Z,70.21
2019-01-23T21:20:48.668Z,70.56
2019-01-23T21:23:29.114Z,70.54
2019-01-23T21:28:36.062Z,70.46
2019-01-23T21:31:05.517Z,70.45
2019-01-23T21:33:42.030Z,70.90
2019-01-23T21:36:11.552Z,70.91
2019-01-23T21:38:46.950Z,70.78
2019-01-23T21:41:20.556Z,71.19
2019-01-23T21:43:53.822Z,70.85
2019-01-23T21:46:26.242Z,71.34
2019-01-23T21:49:01.707Z,70.71
2019-01-23T21:51:33.199Z,71.23
2019-01-23T21:54:06.362Z,70.97
2019-01-23T21:56:41.380Z,70.91
2019-01-23T21:59:12.670Z,71.11
2019-01-23T22:01:48.637Z,70.73
2019-01-23T22:04:26.142Z,70.78
2019-01-23T22:06:58.714Z,70.92
2019-01-23T22:09:32.928Z,70.89
2019-01-23T22:12:04.476Z,70.83
2019-01-23T22:14:36.059Z,70.90
2019-01-23T22:17:08.617Z,71.28
2019-01-23T22:19:47.920Z,71.15
2019-01-23T22:22:23.061Z,71.32
2019-01-23T22:24:56.873Z,71.56
2019-01-23T22:27:28.010Z,71.58
2019-01-23T22:30:02.879Z,71.56
2019-01-23T22:32:34.710Z,71.20
2019-01-23T22:35:06.754Z,71.33
2019-01-23T22:37:40.466Z,71.62
2019-01-23T22:40:17.701Z,71.66
2019-01-23T22:42:48.716Z,71.72
2019-01-23T22:45:20.635Z,71.55
2019-01-23T22:47:54.161Z,71.82
2019-01-23T22:50:26.763Z,71.79
2019-01-23T22:52:57.066Z,71.93
2019-01-23T22:55:31.590Z,72.32
2019-01-23T22:58:04.895Z,72.03
2019-01-23T23:01:19.216Z,72.17
2019-01-23T23:03:50.895Z,72.06
2019-01-23T23:06:20.580Z,71.84
2019-01-23T23:08:57.869Z,72.23
2019-01-23T23:11:33.531Z,72.11
2019-01-23T23:14:13.303Z,72.30
2019-01-23T23:16:49.633Z,72.45
2019-01-23T23:19:22.411Z,72.48
2019-01-23T23:21:52.195Z,72.75
2019-01-23T23:24:26.691Z,72.61
2019-01-23T23:26:58.592Z,72.71
2019-01-23T23:29:31.234Z,72.61
2019-01-23T23:32:02.253Z,72.45
2019-01-23T23:34:32.407Z,72.72
2019-01-23T23:37:04.607Z,72.50
2019-01-23T23:39:37.998Z,72.43
2019-01-23T23:42:10.400Z,72.96
2019-01-23T23:44:40.806Z,72.74
2019-01-23T23:47:11.698Z,72.75
2019-01-23T23:49:44.493Z,72.93
2019-01-23T23:52:13.623Z,72.96
2019-01-23T23:54:43.463Z,73.00
2019-01-23T23:57:16.074Z,73.19
2019-01-23T23:59:47.318Z,73.08
